sensor_id;sensor_type;location;lat;lon;timestamp;pressure;altitude;pressure_sealevel;temperature;humidity
25610;BME280;13479;49.044;8.716;2023-05-25T00:01:34;99518.00;;;10.45;58.87
25610;BME280;13479;49.044;8.716;2023-05-25T00:04:00;99528.72;;;10.55;58.15
25610;BME280;13479;49.044;8.716;2023-05-25T00:06:28;99518.72;;;10.47;58.45
25610;BME280;13479;49.044;8.716;2023-05-25T00:08:54;99513.28;;;10.48;58.38
25610;BME280;13479;49.044;8.716;2023-05-25T00:11:21;99498.09;;;10.39;59.04
25610;BME280;13479;49.044;8.716;2023-05-25T00:13:48;99502.06;;;10.45;58.37
25610;BME280;13479;49.044;8.716;2023-05-25T00:16:13;99519.56;;;10.47;58.13
25610;BME280;13479;49.044;8.716;2023-05-25T00:18:38;99536.97;;;10.63;57.41
25610;BME280;13479;49.044;8.716;2023-05-25T00:21:04;99542.50;;;10.60;57.29
25610;BME280;13479;49.044;8.716;2023-05-25T00:23:31;99522.97;;;10.61;57.41
25610;BME280;13479;49.044;8.716;2023-05-25T00:25:56;99529.69;;;10.65;57.22
25610;BME280;13479;49.044;8.716;2023-05-25T00:28:21;99523.19;;;10.58;57.52
25610;BME280;13479;49.044;8.716;2023-05-25T00:30:46;99512.44;;;10.59;57.31
25610;BME280;13479;49.044;8.716;2023-05-25T00:33:12;99516.41;;;10.65;57.05
25610;BME280;13479;49.044;8.716;2023-05-25T00:35:37;99514.50;;;10.56;57.34
25610;BME280;13479;49.044;8.716;2023-05-25T00:38:02;99512.94;;;10.64;57.13
25610;BME280;13479;49.044;8.716;2023-05-25T00:40:28;99518.47;;;10.61;56.97
25610;BME280;13479;49.044;8.716;2023-05-25T00:42:54;99521.25;;;10.71;56.64
25610;BME280;13479;49.044;8.716;2023-05-25T00:45:20;99509.41;;;10.64;57.15
25610;BME280;13479;49.044;8.716;2023-05-25T00:47:50;99497.84;;;10.65;57.21
25610;BME280;13479;49.044;8.716;2023-05-25T00:50:17;99491.56;;;10.66;57.36
25610;BME280;13479;49.044;8.716;2023-05-25T00:52:46;99471.28;;;10.42;57.96
25610;BME280;13479;49.044;8.716;2023-05-25T00:55:13;99444.63;;;10.44;58.14
25610;BME280;13479;49.044;8.716;2023-05-25T00:57:40;99442.44;;;10.38;58.19
25610;BME280;13479;49.044;8.716;2023-05-25T01:00:10;99448.63;;;10.38;58.08
25610;BME280;13479;49.044;8.716;2023-05-25T01:02:38;99441.63;;;10.48;57.67
25610;BME280;13479;49.044;8.716;2023-05-25T01:05:05;99449.81;;;10.45;58.03
25610;BME280;13479;49.044;8.716;2023-05-25T01:07:32;99447.91;;;10.47;58.05
25610;BME280;13479;49.044;8.716;2023-05-25T01:10:00;99441.59;;;10.37;58.50
25610;BME280;13479;49.044;8.716;2023-05-25T01:12:28;99411.53;;;10.25;58.93
25610;BME280;13479;49.044;8.716;2023-05-25T01:14:54;99393.81;;;10.14;59.67
25610;BME280;13479;49.044;8.716;2023-05-25T01:17:20;99366.34;;;10.04;60.29
25610;BME280;13479;49.044;8.716;2023-05-25T01:19:45;99365.72;;;9.89;61.23
25610;BME280;13479;49.044;8.716;2023-05-25T01:22:20;99362.72;;;9.82;61.69
25610;BME280;13479;49.044;8.716;2023-05-25T01:25:02;99366.91;;;9.73;61.76
25610;BME280;13479;49.044;8.716;2023-05-25T01:27:48;99368.97;;;9.70;61.72
25610;BME280;13479;49.044;8.716;2023-05-25T01:30:15;99365.09;;;9.74;62.14
25610;BME280;13479;49.044;8.716;2023-05-25T01:32:44;99375.34;;;9.67;61.96
25610;BME280;13479;49.044;8.716;2023-05-25T01:35:10;99379.78;;;9.67;61.81
25610;BME280;13479;49.044;8.716;2023-05-25T01:37:36;99374.34;;;9.57;62.50
25610;BME280;13479;49.044;8.716;2023-05-25T01:40:05;99379.41;;;9.60;62.44
25610;BME280;13479;49.044;8.716;2023-05-25T01:42:31;99382.41;;;9.55;62.47
25610;BME280;13479;49.044;8.716;2023-05-25T01:44:57;99374.81;;;9.51;62.69
25610;BME280;13479;49.044;8.716;2023-05-25T01:47:31;99375.31;;;9.56;62.66
25610;BME280;13479;49.044;8.716;2023-05-25T01:52:56;99394.47;;;9.48;63.00
25610;BME280;13479;49.044;8.716;2023-05-25T01:55:24;99396.59;;;9.43;63.27
25610;BME280;13479;49.044;8.716;2023-05-25T01:57:55;99395.84;;;9.41;63.26
25610;BME280;13479;49.044;8.716;2023-05-25T02:00:23;99384.03;;;9.34;63.28
25610;BME280;13479;49.044;8.716;2023-05-25T02:02:50;99380.63;;;9.20;63.67
25610;BME280;13479;49.044;8.716;2023-05-25T02:05:18;99385.34;;;9.28;63.39
25610;BME280;13479;49.044;8.716;2023-05-25T02:07:44;99380.06;;;9.28;63.35
25610;BME280;13479;49.044;8.716;2023-05-25T02:10:09;99394.63;;;9.34;63.61
25610;BME280;13479;49.044;8.716;2023-05-25T02:12:35;99387.59;;;9.21;63.97
25610;BME280;13479;49.044;8.716;2023-05-25T02:15:00;99387.78;;;9.31;63.93
25610;BME280;13479;49.044;8.716;2023-05-25T02:17:25;99393.47;;;9.38;63.43
25610;BME280;13479;49.044;8.716;2023-05-25T02:19:51;99414.19;;;9.44;63.11
25610;BME280;13479;49.044;8.716;2023-05-25T02:22:19;99403.19;;;9.37;63.18
25610;BME280;13479;49.044;8.716;2023-05-25T02:24:44;99387.31;;;9.37;63.36
25610;BME280;13479;49.044;8.716;2023-05-25T02:27:10;99385.97;;;9.32;63.79
25610;BME280;13479;49.044;8.716;2023-05-25T02:29:36;99367.88;;;9.25;64.28
25610;BME280;13479;49.044;8.716;2023-05-25T02:32:02;99368.69;;;9.15;64.49
25610;BME280;13479;49.044;8.716;2023-05-25T02:34:27;99363.94;;;9.07;64.70
25610;BME280;13479;49.044;8.716;2023-05-25T02:36:52;99367.69;;;9.04;65.03
25610;BME280;13479;49.044;8.716;2023-05-25T02:39:18;99368.53;;;9.05;64.83
25610;BME280;13479;49.044;8.716;2023-05-25T02:41:43;99381.13;;;9.01;64.92
25610;BME280;13479;49.044;8.716;2023-05-25T02:44:08;99388.47;;;8.98;64.92
25610;BME280;13479;49.044;8.716;2023-05-25T02:46:33;99384.03;;;8.98;64.78
25610;BME280;13479;49.044;8.716;2023-05-25T02:48:59;99391.03;;;8.99;64.96
25610;BME280;13479;49.044;8.716;2023-05-25T02:51:25;99387.72;;;8.95;65.03
25610;BME280;13479;49.044;8.716;2023-05-25T02:53:50;99388.47;;;8.98;64.84
25610;BME280;13479;49.044;8.716;2023-05-25T02:56:16;99395.47;;;8.99;64.79
25610;BME280;13479;49.044;8.716;2023-05-25T02:58:41;99408.59;;;9.00;64.40
25610;BME280;13479;49.044;8.716;2023-05-25T03:01:06;99420.03;;;9.01;64.80
25610;BME280;13479;49.044;8.716;2023-05-25T03:03:35;99416.16;;;8.93;65.18
25610;BME280;13479;49.044;8.716;2023-05-25T03:06:00;99397.16;;;9.00;65.22
25610;BME280;13479;49.044;8.716;2023-05-25T03:08:25;99397.38;;;8.96;65.18
25610;BME280;13479;49.044;8.716;2023-05-25T03:10:50;99387.69;;;8.84;65.63
25610;BME280;13479;49.044;8.716;2023-05-25T03:13:16;99385.28;;;8.81;65.69
25610;BME280;13479;49.044;8.716;2023-05-25T03:15:41;99385.28;;;8.81;65.77
25610;BME280;13479;49.044;8.716;2023-05-25T03:18:06;99389.03;;;8.90;66.33
25610;BME280;13479;49.044;8.716;2023-05-25T03:20:31;99392.47;;;8.79;65.95
25610;BME280;13479;49.044;8.716;2023-05-25T03:22:58;99390.38;;;8.71;66.79
25610;BME280;13479;49.044;8.716;2023-05-25T03:25:23;99400.19;;;8.82;66.56
25610;BME280;13479;49.044;8.716;2023-05-25T03:27:51;99424.31;;;8.90;66.11
25610;BME280;13479;49.044;8.716;2023-05-25T03:30:18;99444.19;;;8.96;65.51
25610;BME280;13479;49.044;8.716;2023-05-25T03:32:43;99470.13;;;9.04;64.92
25610;BME280;13479;49.044;8.716;2023-05-25T03:35:08;99502.41;;;9.09;65.01
25610;BME280;13479;49.044;8.716;2023-05-25T03:37:34;99492.81;;;8.95;65.67
25610;BME280;13479;49.044;8.716;2023-05-25T03:39:59;99466.06;;;8.87;65.40
25610;BME280;13479;49.044;8.716;2023-05-25T03:42:24;99439.78;;;8.84;66.19
25610;BME280;13479;49.044;8.716;2023-05-25T03:44:50;99432.13;;;8.92;66.25
25610;BME280;13479;49.044;8.716;2023-05-25T03:47:15;99454.19;;;8.92;65.56
25610;BME280;13479;49.044;8.716;2023-05-25T03:49:40;99467.69;;;9.01;65.57
25610;BME280;13479;49.044;8.716;2023-05-25T03:52:06;99474.69;;;9.02;65.19
25610;BME280;13479;49.044;8.716;2023-05-25T03:54:31;99467.56;;;9.02;65.38
25610;BME280;13479;49.044;8.716;2023-05-25T03:56:57;99472.31;;;9.10;65.31
25610;BME280;13479;49.044;8.716;2023-05-25T03:59:27;99483.53;;;9.14;65.26
25610;BME280;13479;49.044;8.716;2023-05-25T04:01:52;99481.53;;;9.17;65.06
25610;BME280;13479;49.044;8.716;2023-05-25T04:04:18;99487.59;;;9.31;65.09
25610;BME280;13479;49.044;8.716;2023-05-25T04:06:43;99512.47;;;9.41;64.69
25610;BME280;13479;49.044;8.716;2023-05-25T04:09:15;99535.00;;;9.47;64.44
25610;BME280;13479;49.044;8.716;2023-05-25T04:11:40;99561.25;;;9.63;63.56
25610;BME280;13479;49.044;8.716;2023-05-25T04:14:06;99591.44;;;9.73;63.23
25610;BME280;13479;49.044;8.716;2023-05-25T04:16:31;99606.19;;;9.88;62.39
25610;BME280;13479;49.044;8.716;2023-05-25T04:18:56;99606.72;;;9.94;61.72
25610;BME280;13479;49.044;8.716;2023-05-25T04:21:21;99598.50;;;9.97;61.72
25610;BME280;13479;49.044;8.716;2023-05-25T04:23:47;99607.38;;;10.09;61.42
25610;BME280;13479;49.044;8.716;2023-05-25T04:26:12;99583.59;;;9.96;61.90
25610;BME280;13479;49.044;8.716;2023-05-25T04:28:39;99587.63;;;10.13;61.35
25610;BME280;13479;49.044;8.716;2023-05-25T04:31:05;99593.28;;;10.19;61.07
25610;BME280;13479;49.044;8.716;2023-05-25T04:33:31;99604.19;;;10.28;60.61
25610;BME280;13479;49.044;8.716;2023-05-25T04:35:58;99610.72;;;10.35;60.33
25610;BME280;13479;49.044;8.716;2023-05-25T04:38:24;99598.19;;;10.37;60.52
25610;BME280;13479;49.044;8.716;2023-05-25T04:40:50;99602.00;;;10.46;60.09
25610;BME280;13479;49.044;8.716;2023-05-25T04:43:16;99606.44;;;10.57;59.81
25610;BME280;13479;49.044;8.716;2023-05-25T04:45:42;99605.00;;;10.64;59.93
25610;BME280;13479;49.044;8.716;2023-05-25T04:48:09;99614.94;;;10.73;59.39
25610;BME280;13479;49.044;8.716;2023-05-25T04:50:35;99605.28;;;10.72;59.37
25610;BME280;13479;49.044;8.716;2023-05-25T04:53:01;99594.88;;;10.69;59.74
25610;BME280;13479;49.044;8.716;2023-05-25T04:55:26;99601.78;;;10.94;58.84
25610;BME280;13479;49.044;8.716;2023-05-25T04:57:52;99619.78;;;11.13;57.91
25610;BME280;13479;49.044;8.716;2023-05-25T05:00:18;99615.94;;;11.18;57.86
25610;BME280;13479;49.044;8.716;2023-05-25T05:02:44;99615.19;;;11.27;57.33
25610;BME280;13479;49.044;8.716;2023-05-25T05:05:10;99623.63;;;11.32;57.14
25610;BME280;13479;49.044;8.716;2023-05-25T05:07:35;99604.78;;;11.35;57.21
25610;BME280;13479;49.044;8.716;2023-05-25T05:10:01;99591.00;;;11.41;57.50
25610;BME280;13479;49.044;8.716;2023-05-25T05:12:26;99611.50;;;11.62;56.67
25610;BME280;13479;49.044;8.716;2023-05-25T05:14:51;99611.81;;;11.80;55.92
25610;BME280;13479;49.044;8.716;2023-05-25T05:17:17;99628.22;;;12.72;53.54
25610;BME280;13479;49.044;8.716;2023-05-25T05:19:42;99643.28;;;13.95;50.46
25610;BME280;13479;49.044;8.716;2023-05-25T05:22:07;99644.28;;;15.10;47.72
25610;BME280;13479;49.044;8.716;2023-05-25T05:24:33;99643.63;;;15.92;45.47
25610;BME280;13479;49.044;8.716;2023-05-25T05:26:59;99649.63;;;16.48;43.43
25610;BME280;13479;49.044;8.716;2023-05-25T05:29:25;99650.75;;;17.08;42.25
25610;BME280;13479;49.044;8.716;2023-05-25T05:31:53;99657.94;;;17.94;40.89
25610;BME280;13479;49.044;8.716;2023-05-25T05:34:18;99675.16;;;18.42;39.33
25610;BME280;13479;49.044;8.716;2023-05-25T05:36:44;99668.53;;;19.19;39.10
25610;BME280;13479;49.044;8.716;2023-05-25T05:39:09;99692.47;;;19.62;37.23
25610;BME280;13479;49.044;8.716;2023-05-25T05:41:34;99694.28;;;20.10;36.78
25610;BME280;13479;49.044;8.716;2023-05-25T05:44:00;99704.59;;;20.29;36.40
25610;BME280;13479;49.044;8.716;2023-05-25T05:46:25;99712.34;;;20.24;35.73
25610;BME280;13479;49.044;8.716;2023-05-25T05:48:51;99720.22;;;20.34;36.21
25610;BME280;13479;49.044;8.716;2023-05-25T05:51:16;99713.81;;;20.58;35.50
25610;BME280;13479;49.044;8.716;2023-05-25T05:53:41;99726.78;;;20.86;34.78
25610;BME280;13479;49.044;8.716;2023-05-25T05:56:15;99718.81;;;21.08;34.37
25610;BME280;13479;49.044;8.716;2023-05-25T05:58:41;99721.84;;;20.90;34.28
25610;BME280;13479;49.044;8.716;2023-05-25T06:01:06;99729.25;;;19.78;35.44
25610;BME280;13479;49.044;8.716;2023-05-25T06:03:33;99703.25;;;20.02;35.83
25610;BME280;13479;49.044;8.716;2023-05-25T06:05:58;99701.31;;;19.31;36.69
25610;BME280;13479;49.044;8.716;2023-05-25T06:08:24;99681.78;;;19.37;36.53
25610;BME280;13479;49.044;8.716;2023-05-25T06:10:49;99660.34;;;19.92;36.73
25610;BME280;13479;49.044;8.716;2023-05-25T06:13:14;99683.59;;;19.93;36.22
25610;BME280;13479;49.044;8.716;2023-05-25T06:15:40;99696.19;;;20.24;35.25
25610;BME280;13479;49.044;8.716;2023-05-25T06:18:05;99702.78;;;20.68;34.94
25610;BME280;13479;49.044;8.716;2023-05-25T06:20:31;99719.56;;;21.32;33.72
25610;BME280;13479;49.044;8.716;2023-05-25T06:22:56;99726.94;;;21.83;32.70
25610;BME280;13479;49.044;8.716;2023-05-25T06:25:22;99727.44;;;22.45;32.45
25610;BME280;13479;49.044;8.716;2023-05-25T06:27:47;99729.16;;;22.31;32.16
25610;BME280;13479;49.044;8.716;2023-05-25T06:30:13;99752.88;;;22.50;31.85
25610;BME280;13479;49.044;8.716;2023-05-25T06:32:38;99755.97;;;22.69;31.74
25610;BME280;13479;49.044;8.716;2023-05-25T06:35:04;99741.81;;;22.89;31.35
25610;BME280;13479;49.044;8.716;2023-05-25T06:37:30;99747.97;;;23.33;30.97
25610;BME280;13479;49.044;8.716;2023-05-25T06:40:02;99750.50;;;24.18;30.05
25610;BME280;13479;49.044;8.716;2023-05-25T06:42:27;99751.09;;;24.82;28.76
25610;BME280;13479;49.044;8.716;2023-05-25T06:44:52;99743.94;;;24.67;28.89
25610;BME280;13479;49.044;8.716;2023-05-25T06:47:18;99744.38;;;25.45;28.13
25610;BME280;13479;49.044;8.716;2023-05-25T06:49:43;99756.84;;;26.25;26.87
25610;BME280;13479;49.044;8.716;2023-05-25T06:52:08;99750.66;;;26.75;26.51
25610;BME280;13479;49.044;8.716;2023-05-25T06:54:33;99758.97;;;26.23;26.49
25610;BME280;13479;49.044;8.716;2023-05-25T06:56:59;99764.78;;;26.65;26.23
25610;BME280;13479;49.044;8.716;2023-05-25T06:59:25;99753.13;;;26.51;26.57
25610;BME280;13479;49.044;8.716;2023-05-25T07:01:50;99751.56;;;25.85;27.20
25610;BME280;13479;49.044;8.716;2023-05-25T07:04:15;99746.66;;;26.14;27.10
25610;BME280;13479;49.044;8.716;2023-05-25T07:06:41;99746.19;;;26.24;26.91
25610;BME280;13479;49.044;8.716;2023-05-25T07:09:06;99744.22;;;25.85;27.15
25610;BME280;13479;49.044;8.716;2023-05-25T07:11:31;99728.06;;;25.32;27.77
25610;BME280;13479;49.044;8.716;2023-05-25T07:13:56;99745.63;;;24.95;27.75
25610;BME280;13479;49.044;8.716;2023-05-25T07:16:22;99736.31;;;24.23;29.06
25610;BME280;13479;49.044;8.716;2023-05-25T07:18:47;99704.63;;;24.43;29.17
25610;BME280;13479;49.044;8.716;2023-05-25T07:21:12;99691.72;;;24.59;29.27
25610;BME280;13479;49.044;8.716;2023-05-25T07:23:37;99682.75;;;25.05;28.46
25610;BME280;13479;49.044;8.716;2023-05-25T07:26:05;99702.84;;;25.83;27.66
25610;BME280;13479;49.044;8.716;2023-05-25T07:28:30;99715.53;;;26.67;26.94
25610;BME280;13479;49.044;8.716;2023-05-25T07:30:55;99721.16;;;27.23;25.96
25610;BME280;13479;49.044;8.716;2023-05-25T07:33:20;99736.50;;;26.66;26.28
25610;BME280;13479;49.044;8.716;2023-05-25T07:35:46;99741.50;;;26.38;26.64
25610;BME280;13479;49.044;8.716;2023-05-25T07:38:11;99725.09;;;27.27;26.02
25610;BME280;13479;49.044;8.716;2023-05-25T07:40:36;99738.00;;;27.57;25.67
25610;BME280;13479;49.044;8.716;2023-05-25T07:43:02;99752.78;;;28.66;24.69
25610;BME280;13479;49.044;8.716;2023-05-25T07:45:27;99748.13;;;28.55;24.40
25610;BME280;13479;49.044;8.716;2023-05-25T07:47:52;99748.28;;;28.11;24.96
25610;BME280;13479;49.044;8.716;2023-05-25T07:50:18;99735.28;;;27.57;25.65
25610;BME280;13479;49.044;8.716;2023-05-25T07:52:43;99739.75;;;27.51;25.79
25610;BME280;13479;49.044;8.716;2023-05-25T07:55:09;99747.88;;;27.58;25.72
25610;BME280;13479;49.044;8.716;2023-05-25T07:57:34;99743.09;;;28.82;24.67
25610;BME280;13479;49.044;8.716;2023-05-25T08:00:00;99739.06;;;28.96;24.29
25610;BME280;13479;49.044;8.716;2023-05-25T08:02:25;99742.06;;;29.42;24.20
25610;BME280;13479;49.044;8.716;2023-05-25T08:04:51;99738.84;;;30.10;23.89
25610;BME280;13479;49.044;8.716;2023-05-25T08:07:20;99730.06;;;31.84;22.13
25610;BME280;13479;49.044;8.716;2023-05-25T08:09:45;99744.13;;;32.64;21.53
25610;BME280;13479;49.044;8.716;2023-05-25T08:12:11;99747.34;;;31.62;21.67
25610;BME280;13479;49.044;8.716;2023-05-25T08:14:36;99750.75;;;30.33;22.91
25610;BME280;13479;49.044;8.716;2023-05-25T08:17:01;99744.88;;;30.12;23.41
25610;BME280;13479;49.044;8.716;2023-05-25T08:19:28;99731.56;;;30.79;23.22
25610;BME280;13479;49.044;8.716;2023-05-25T08:21:55;99734.13;;;31.59;22.85
25610;BME280;13479;49.044;8.716;2023-05-25T08:24:20;99745.59;;;32.45;21.41
25610;BME280;13479;49.044;8.716;2023-05-25T08:26:46;99736.69;;;31.43;21.41
25610;BME280;13479;49.044;8.716;2023-05-25T08:29:12;99736.53;;;31.33;22.45
25610;BME280;13479;49.044;8.716;2023-05-25T08:31:38;99736.94;;;32.63;21.65
25610;BME280;13479;49.044;8.716;2023-05-25T08:34:03;99744.03;;;32.54;21.15
25610;BME280;13479;49.044;8.716;2023-05-25T08:36:28;99756.69;;;32.55;21.36
25610;BME280;13479;49.044;8.716;2023-05-25T08:38:53;99754.84;;;33.36;20.70
25610;BME280;13479;49.044;8.716;2023-05-25T08:41:19;99758.81;;;33.56;20.33
25610;BME280;13479;49.044;8.716;2023-05-25T08:43:45;99749.44;;;34.15;20.29
25610;BME280;13479;49.044;8.716;2023-05-25T08:46:11;99760.72;;;33.50;19.94
25610;BME280;13479;49.044;8.716;2023-05-25T08:48:37;99750.75;;;32.69;20.71
25610;BME280;13479;49.044;8.716;2023-05-25T08:51:07;99752.22;;;33.57;20.50
25610;BME280;13479;49.044;8.716;2023-05-25T08:53:38;99761.47;;;33.88;19.60
25610;BME280;13479;49.044;8.716;2023-05-25T08:56:12;99759.41;;;33.20;20.78
25610;BME280;13479;49.044;8.716;2023-05-25T08:58:44;99761.31;;;33.63;20.63
25610;BME280;13479;49.044;8.716;2023-05-25T09:01:14;99752.94;;;33.90;19.79
25610;BME280;13479;49.044;8.716;2023-05-25T09:03:40;99758.19;;;33.97;20.34
25610;BME280;13479;49.044;8.716;2023-05-25T09:06:05;99763.75;;;33.49;19.62
25610;BME280;13479;49.044;8.716;2023-05-25T09:08:31;99751.75;;;33.27;20.49
25610;BME280;13479;49.044;8.716;2023-05-25T09:10:57;99751.94;;;33.53;20.08
25610;BME280;13479;49.044;8.716;2023-05-25T09:13:22;99739.66;;;33.82;20.53
25610;BME280;13479;49.044;8.716;2023-05-25T09:15:48;99746.09;;;33.45;20.07
25610;BME280;13479;49.044;8.716;2023-05-25T09:18:13;99744.63;;;32.61;20.62
25610;BME280;13479;49.044;8.716;2023-05-25T09:20:38;99729.09;;;32.77;20.95
25610;BME280;13479;49.044;8.716;2023-05-25T09:23:04;99725.13;;;32.90;20.89
25610;BME280;13479;49.044;8.716;2023-05-25T09:25:31;99714.00;;;33.66;20.97
25610;BME280;13479;49.044;8.716;2023-05-25T09:27:56;99718.75;;;33.86;20.78
25610;BME280;13479;49.044;8.716;2023-05-25T09:30:23;99733.69;;;33.42;20.49
25610;BME280;13479;49.044;8.716;2023-05-25T09:32:48;99730.28;;;32.54;21.15
25610;BME280;13479;49.044;8.716;2023-05-25T09:35:15;99724.06;;;32.64;21.06
25610;BME280;13479;49.044;8.716;2023-05-25T09:37:42;99739.91;;;32.24;21.39
25610;BME280;13479;49.044;8.716;2023-05-25T09:40:08;99721.81;;;32.06;21.63
25610;BME280;13479;49.044;8.716;2023-05-25T09:42:35;99707.22;;;32.00;21.38
25610;BME280;13479;49.044;8.716;2023-05-25T09:45:01;99713.75;;;31.72;21.37
25610;BME280;13479;49.044;8.716;2023-05-25T09:47:27;99703.25;;;31.47;22.06
25610;BME280;13479;49.044;8.716;2023-05-25T09:49:53;99704.25;;;31.40;22.09
25610;BME280;13479;49.044;8.716;2023-05-25T09:52:20;99697.16;;;31.22;22.25
25610;BME280;13479;49.044;8.716;2023-05-25T09:54:47;99696.84;;;31.02;22.31
25610;BME280;13479;49.044;8.716;2023-05-25T09:57:14;99692.88;;;30.75;23.29
25610;BME280;13479;49.044;8.716;2023-05-25T09:59:40;99691.16;;;30.40;23.58
25610;BME280;13479;49.044;8.716;2023-05-25T10:02:06;99684.69;;;30.46;23.56
25610;BME280;13479;49.044;8.716;2023-05-25T10:04:31;99670.94;;;30.75;23.52
25610;BME280;13479;49.044;8.716;2023-05-25T10:06:57;99680.81;;;30.42;23.36
25610;BME280;13479;49.044;8.716;2023-05-25T10:09:27;99678.97;;;30.02;23.59
25610;BME280;13479;49.044;8.716;2023-05-25T10:11:53;99673.09;;;29.81;24.20
25610;BME280;13479;49.044;8.716;2023-05-25T10:14:23;99673.44;;;29.97;24.37
25610;BME280;13479;49.044;8.716;2023-05-25T10:16:52;99666.75;;;29.93;24.46
25610;BME280;13479;49.044;8.716;2023-05-25T10:19:39;99664.53;;;29.78;24.30
25610;BME280;13479;49.044;8.716;2023-05-25T10:22:14;99666.16;;;29.90;25.11
25610;BME280;13479;49.044;8.716;2023-05-25T10:24:52;99666.72;;;30.04;24.46
25610;BME280;13479;49.044;8.716;2023-05-25T10:27:18;99665.56;;;29.59;24.34
25610;BME280;13479;49.044;8.716;2023-05-25T10:29:47;99677.63;;;29.23;24.88
25610;BME280;13479;49.044;8.716;2023-05-25T10:32:15;99653.00;;;29.11;25.69
25610;BME280;13479;49.044;8.716;2023-05-25T10:34:40;99681.94;;;28.41;25.79
25610;BME280;13479;49.044;8.716;2023-05-25T10:37:06;99654.22;;;27.64;26.37
25610;BME280;13479;49.044;8.716;2023-05-25T10:39:32;99663.47;;;27.44;27.28
25610;BME280;13479;49.044;8.716;2023-05-25T10:41:59;99654.38;;;27.32;27.50
25610;BME280;13479;49.044;8.716;2023-05-25T10:44:26;99645.81;;;27.28;27.55
25610;BME280;13479;49.044;8.716;2023-05-25T10:46:52;99643.53;;;27.25;27.30
25610;BME280;13479;49.044;8.716;2023-05-25T10:49:31;99633.94;;;27.23;28.00
25610;BME280;13479;49.044;8.716;2023-05-25T10:52:00;99643.00;;;27.35;27.76
25610;BME280;13479;49.044;8.716;2023-05-25T10:54:30;99631.03;;;27.73;27.12
25610;BME280;13479;49.044;8.716;2023-05-25T10:57:17;99645.66;;;27.61;27.47
25610;BME280;13479;49.044;8.716;2023-05-25T10:59:49;99639.41;;;27.60;27.44
25610;BME280;13479;49.044;8.716;2023-05-25T11:02:16;99633.84;;;27.67;27.69
25610;BME280;13479;49.044;8.716;2023-05-25T11:04:41;99635.53;;;27.68;27.22
25610;BME280;13479;49.044;8.716;2023-05-25T11:07:08;99640.88;;;27.74;27.57
25610;BME280;13479;49.044;8.716;2023-05-25T11:09:40;99644.38;;;27.26;28.28
25610;BME280;13479;49.044;8.716;2023-05-25T11:12:12;99643.31;;;27.08;27.92
25610;BME280;13479;49.044;8.716;2023-05-25T11:14:42;99635.31;;;26.63;28.20
25610;BME280;13479;49.044;8.716;2023-05-25T11:17:10;99642.03;;;26.10;29.60
25610;BME280;13479;49.044;8.716;2023-05-25T11:24:38;99655.84;;;24.70;31.38
25610;BME280;13479;49.044;8.716;2023-05-25T11:27:03;99639.53;;;24.30;31.54
25610;BME280;13479;49.044;8.716;2023-05-25T11:29:30;99631.34;;;23.48;33.37
25610;BME280;13479;49.044;8.716;2023-05-25T11:31:56;99630.22;;;22.93;34.10
25610;BME280;13479;49.044;8.716;2023-05-25T11:34:22;99629.56;;;22.63;34.34
25610;BME280;13479;49.044;8.716;2023-05-25T11:36:53;99614.03;;;22.43;35.53
25610;BME280;13479;49.044;8.716;2023-05-25T11:39:19;99626.75;;;22.49;35.25
25610;BME280;13479;49.044;8.716;2023-05-25T11:41:47;99606.56;;;22.45;35.59
25610;BME280;13479;49.044;8.716;2023-05-25T11:44:14;99602.09;;;22.59;35.42
25610;BME280;13479;49.044;8.716;2023-05-25T11:46:40;99603.81;;;22.67;35.11
25610;BME280;13479;49.044;8.716;2023-05-25T11:49:07;99616.53;;;22.73;35.07
25610;BME280;13479;49.044;8.716;2023-05-25T11:51:34;99594.69;;;22.75;35.10
25610;BME280;13479;49.044;8.716;2023-05-25T11:54:00;99587.69;;;22.59;34.89
25610;BME280;13479;49.044;8.716;2023-05-25T11:56:31;99590.81;;;22.56;35.56
25610;BME280;13479;49.044;8.716;2023-05-25T11:58:56;99595.03;;;22.65;35.62
25610;BME280;13479;49.044;8.716;2023-05-25T12:01:22;99595.22;;;22.63;36.25
25610;BME280;13479;49.044;8.716;2023-05-25T12:03:50;99594.69;;;22.75;35.07
25610;BME280;13479;49.044;8.716;2023-05-25T12:06:30;99583.66;;;22.76;35.03
25610;BME280;13479;49.044;8.716;2023-05-25T12:08:58;99575.97;;;22.80;35.37
25610;BME280;13479;49.044;8.716;2023-05-25T12:11:30;99583.13;;;22.88;35.22
25610;BME280;13479;49.044;8.716;2023-05-25T12:13:56;99583.50;;;22.85;35.46
25610;BME280;13479;49.044;8.716;2023-05-25T12:16:22;99571.25;;;22.89;35.52
25610;BME280;13479;49.044;8.716;2023-05-25T12:18:48;99573.41;;;23.00;35.52
25610;BME280;13479;49.044;8.716;2023-05-25T12:21:14;99561.19;;;23.18;35.22
25610;BME280;13479;49.044;8.716;2023-05-25T12:23:39;99562.53;;;23.35;35.57
25610;BME280;13479;49.044;8.716;2023-05-25T12:26:08;99579.09;;;23.67;34.96
25610;BME280;13479;49.044;8.716;2023-05-25T12:28:34;99587.25;;;23.74;34.53
25610;BME280;13479;49.044;8.716;2023-05-25T12:31:18;99588.50;;;23.85;34.49
25610;BME280;13479;49.044;8.716;2023-05-25T12:33:44;99594.34;;;23.68;34.65
25610;BME280;13479;49.044;8.716;2023-05-25T12:36:09;99605.34;;;23.67;34.13
25610;BME280;13479;49.044;8.716;2023-05-25T12:38:34;99599.88;;;23.53;34.32
25610;BME280;13479;49.044;8.716;2023-05-25T12:41:06;99607.84;;;23.62;34.10
25610;BME280;13479;49.044;8.716;2023-05-25T12:43:36;99603.06;;;23.70;34.50
25610;BME280;13479;49.044;8.716;2023-05-25T12:46:02;99601.00;;;23.79;34.51
25610;BME280;13479;49.044;8.716;2023-05-25T12:48:27;99597.69;;;23.84;35.14
25610;BME280;13479;49.044;8.716;2023-05-25T12:50:56;99582.88;;;23.93;34.41
25610;BME280;13479;49.044;8.716;2023-05-25T12:53:22;99596.94;;;24.03;33.95
25610;BME280;13479;49.044;8.716;2023-05-25T12:55:47;99604.00;;;24.04;33.77
25610;BME280;13479;49.044;8.716;2023-05-25T12:58:26;99600.25;;;23.99;34.52
25610;BME280;13479;49.044;8.716;2023-05-25T13:00:52;99595.84;;;23.91;34.36
25610;BME280;13479;49.044;8.716;2023-05-25T13:03:17;99596.72;;;23.98;34.01
25610;BME280;13479;49.044;8.716;2023-05-25T13:05:42;99604.88;;;24.12;33.64
25610;BME280;13479;49.044;8.716;2023-05-25T13:08:08;99578.38;;;24.07;34.73